sensor_id;sensor_type;location;lat;lon;timestamp;pressure;altitude;pressure_sealevel;temperature;humidity
43119;BME280;28729;49.838;8.650;2023-07-28T00:02:50;98977.47;;;17.26;100.00
43119;BME280;28729;49.838;8.650;2023-07-28T00:06:52;98973.84;;;17.25;100.00
43119;BME280;28729;49.838;8.650;2023-07-28T00:10:54;98973.00;;;17.25;100.00
43119;BME280;28729;49.838;8.650;2023-07-28T00:14:56;98977.47;;;17.26;100.00
43119;BME280;28729;49.838;8.650;2023-07-28T00:18:58;98967.16;;;17.26;100.00
43119;BME280;28729;49.838;8.650;2023-07-28T00:22:59;98961.88;;;17.25;100.00
43119;BME280;28729;49.838;8.650;2023-07-28T00:27:01;98973.84;;;17.25;100.00
43119;BME280;28729;49.838;8.650;2023-07-28T00:31:03;98965.19;;;17.27;100.00
43119;BME280;28729;49.838;8.650;2023-07-28T00:35:05;98963.22;;;17.27;100.00
43119;BME280;28729;49.838;8.650;2023-07-28T00:39:07;98963.53;;;17.26;100.00
43119;BME280;28729;49.838;8.650;2023-07-28T00:43:09;98953.84;;;17.23;100.00
43119;BME280;28729;49.838;8.650;2023-07-28T00:47:11;98957.78;;;17.22;100.00
43119;BME280;28729;49.838;8.650;2023-07-28T00:51:13;98958.09;;;17.21;100.00
43119;BME280;28729;49.838;8.650;2023-07-28T00:55:15;98939.41;;;17.21;100.00
43119;BME280;28729;49.838;8.650;2023-07-28T00:59:18;98958.91;;;17.21;100.00
43119;BME280;28729;49.838;8.650;2023-07-28T01:03:20;98949.91;;;17.24;100.00
43119;BME280;28729;49.838;8.650;2023-07-28T01:11:30;98946.84;;;17.26;100.00
43119;BME280;28729;49.838;8.650;2023-07-28T01:15:32;98950.09;;;17.28;100.00
43119;BME280;28729;49.838;8.650;2023-07-28T01:19:34;98955.69;;;17.28;100.00
43119;BME280;28729;49.838;8.650;2023-07-28T01:28:10;98955.69;;;17.28;100.00
43119;BME280;28729;49.838;8.650;2023-07-28T01:32:14;98937.03;;;17.28;100.00
43119;BME280;28729;49.838;8.650;2023-07-28T01:36:16;98941.44;;;17.29;100.00
43119;BME280;28729;49.838;8.650;2023-07-28T01:40:20;98946.69;;;17.31;100.00
43119;BME280;28729;49.838;8.650;2023-07-28T01:44:22;98937.22;;;17.32;100.00
43119;BME280;28729;49.838;8.650;2023-07-28T01:48:25;98931.31;;;17.34;100.00
43119;BME280;28729;49.838;8.650;2023-07-28T01:52:27;98940.81;;;17.33;100.00
43119;BME280;28729;49.838;8.650;2023-07-28T01:56:29;98940.31;;;17.30;100.00
43119;BME280;28729;49.838;8.650;2023-07-28T02:00:32;98944.44;;;17.33;100.00
43119;BME280;28729;49.838;8.650;2023-07-28T02:04:34;98934.94;;;17.34;100.00
43119;BME280;28729;49.838;8.650;2023-07-28T02:08:36;98936.88;;;17.34;100.00
43119;BME280;28729;49.838;8.650;2023-07-28T02:12:38;98943.09;;;17.30;100.00
43119;BME280;28729;49.838;8.650;2023-07-28T02:16:40;98940.81;;;17.33;100.00
43119;BME280;28729;49.838;8.650;2023-07-28T02:20:42;98944.13;;;17.35;100.00
43119;BME280;28729;49.838;8.650;2023-07-28T02:24:44;98934.44;;;17.32;100.00
43119;BME280;28729;49.838;8.650;2023-07-28T02:28:46;98938.56;;;17.35;100.00
43119;BME280;28729;49.838;8.650;2023-07-28T02:32:49;98943.78;;;17.36;100.00
43119;BME280;28729;49.838;8.650;2023-07-28T02:36:50;98936.25;;;17.37;100.00
43119;BME280;28729;49.838;8.650;2023-07-28T02:40:53;98937.59;;;17.39;100.00
43119;BME280;28729;49.838;8.650;2023-07-28T02:44:54;98943.50;;;17.38;100.00
43119;BME280;28729;49.838;8.650;2023-07-28T02:48:56;98952.16;;;17.36;100.00
43119;BME280;28729;49.838;8.650;2023-07-28T02:52:59;98954.44;;;17.34;100.00
43119;BME280;28729;49.838;8.650;2023-07-28T02:57:00;98960.84;;;17.35;100.00
43119;BME280;28729;49.838;8.650;2023-07-28T03:01:02;98957.72;;;17.36;100.00
43119;BME280;28729;49.838;8.650;2023-07-28T03:05:09;98957.53;;;17.33;100.00
43119;BME280;28729;49.838;8.650;2023-07-28T03:09:31;98950.31;;;17.31;100.00
43119;BME280;28729;49.838;8.650;2023-07-28T03:13:35;98941.75;;;17.28;100.00
43119;BME280;28729;49.838;8.650;2023-07-28T03:17:37;98951.59;;;17.25;100.00
43119;BME280;28729;49.838;8.650;2023-07-28T03:21:39;98943.88;;;17.22;100.00
43119;BME280;28729;49.838;8.650;2023-07-28T03:25:41;98945.31;;;17.20;100.00
43119;BME280;28729;49.838;8.650;2023-07-28T03:29:43;98959.00;;;17.16;100.00
43119;BME280;28729;49.838;8.650;2023-07-28T03:33:47;98961.31;;;17.14;100.00
43119;BME280;28729;49.838;8.650;2023-07-28T03:37:49;98969.34;;;17.16;100.00
43119;BME280;28729;49.838;8.650;2023-07-28T03:41:51;98967.06;;;17.18;100.00
43119;BME280;28729;49.838;8.650;2023-07-28T03:45:52;98957.38;;;17.15;100.00
43119;BME280;28729;49.838;8.650;2023-07-28T03:49:54;98952.13;;;17.14;100.00
43119;BME280;28729;49.838;8.650;2023-07-28T03:53:57;98950.81;;;17.11;100.00
43119;BME280;28729;49.838;8.650;2023-07-28T03:57:58;98949.66;;;17.12;100.00
43119;BME280;28729;49.838;8.650;2023-07-28T04:02:00;98954.72;;;17.10;100.00
43119;BME280;28729;49.838;8.650;2023-07-28T04:06:10;98948.31;;;17.09;100.00
43119;BME280;28729;49.838;8.650;2023-07-28T04:10:13;98956.66;;;17.09;100.00
43119;BME280;28729;49.838;8.650;2023-07-28T04:14:14;98948.84;;;17.12;100.00
43119;BME280;28729;49.838;8.650;2023-07-28T04:18:16;98952.63;;;17.16;100.00
43119;BME280;28729;49.838;8.650;2023-07-28T04:22:19;98951.19;;;17.18;100.00
43119;BME280;28729;49.838;8.650;2023-07-28T04:26:25;98956.13;;;17.21;100.00
43119;BME280;28729;49.838;8.650;2023-07-28T04:30:33;98956.31;;;17.25;100.00
43119;BME280;28729;49.838;8.650;2023-07-28T04:34:36;98961.75;;;17.30;100.00
43119;BME280;28729;49.838;8.650;2023-07-28T04:38:49;98968.38;;;17.34;100.00
43119;BME280;28729;49.838;8.650;2023-07-28T04:42:51;98974.59;;;17.40;100.00
43119;BME280;28729;49.838;8.650;2023-07-28T04:46:55;98976.97;;;17.46;100.00
43119;BME280;28729;49.838;8.650;2023-07-28T04:50:57;98983.25;;;17.52;100.00
43119;BME280;28729;49.838;8.650;2023-07-28T04:55:18;98990.13;;;17.54;100.00
43119;BME280;28729;49.838;8.650;2023-07-28T04:59:20;98986.91;;;17.61;100.00
43119;BME280;28729;49.838;8.650;2023-07-28T05:03:22;98989.25;;;17.68;100.00
43119;BME280;28729;49.838;8.650;2023-07-28T05:07:32;98999.03;;;17.79;100.00
43119;BME280;28729;49.838;8.650;2023-07-28T05:11:33;98992.38;;;17.89;100.00
43119;BME280;28729;49.838;8.650;2023-07-28T05:15:36;98998.53;;;17.99;100.00
43119;BME280;28729;49.838;8.650;2023-07-28T05:19:40;98999.88;;;18.11;100.00
43119;BME280;28729;49.838;8.650;2023-07-28T05:23:45;99009.94;;;18.20;100.00
43119;BME280;28729;49.838;8.650;2023-07-28T05:27:47;99014.50;;;18.16;100.00
43119;BME280;28729;49.838;8.650;2023-07-28T05:31:50;99020.09;;;18.16;100.00
43119;BME280;28729;49.838;8.650;2023-07-28T05:36:02;99018.56;;;18.10;100.00
43119;BME280;28729;49.838;8.650;2023-07-28T05:40:07;99016.31;;;18.12;100.00
43119;BME280;28729;49.838;8.650;2023-07-28T05:44:10;99023.00;;;18.11;100.00
43119;BME280;28729;49.838;8.650;2023-07-28T05:48:12;99025.66;;;18.16;100.00
43119;BME280;28729;49.838;8.650;2023-07-28T05:52:14;99019.44;;;18.19;100.00
43119;BME280;28729;49.838;8.650;2023-07-28T05:56:16;99034.91;;;18.26;100.00
43119;BME280;28729;49.838;8.650;2023-07-28T06:00:18;99027.22;;;18.31;100.00
43119;BME280;28729;49.838;8.650;2023-07-28T06:04:22;99034.34;;;18.46;100.00
43119;BME280;28729;49.838;8.650;2023-07-28T06:08:30;99028.53;;;18.65;100.00
43119;BME280;28729;49.838;8.650;2023-07-28T06:12:32;99029.25;;;18.79;100.00
43119;BME280;28729;49.838;8.650;2023-07-28T06:16:33;99035.38;;;18.90;100.00
43119;BME280;28729;49.838;8.650;2023-07-28T06:20:35;99034.56;;;18.98;100.00
43119;BME280;28729;49.838;8.650;2023-07-28T06:24:38;99036.38;;;19.03;100.00
43119;BME280;28729;49.838;8.650;2023-07-28T06:28:40;99043.16;;;19.10;100.00
43119;BME280;28729;49.838;8.650;2023-07-28T06:32:42;99049.22;;;19.12;100.00
43119;BME280;28729;49.838;8.650;2023-07-28T06:36:44;99054.34;;;19.28;100.00
43119;BME280;28729;49.838;8.650;2023-07-28T06:40:46;99051.38;;;19.33;100.00
43119;BME280;28729;49.838;8.650;2023-07-28T06:44:48;99058.63;;;19.34;100.00
43119;BME280;28729;49.838;8.650;2023-07-28T06:48:50;99067.84;;;19.34;100.00
43119;BME280;28729;49.838;8.650;2023-07-28T06:52:52;99068.66;;;19.35;100.00
43119;BME280;28729;49.838;8.650;2023-07-28T06:56:59;99075.06;;;19.44;100.00
43119;BME280;28729;49.838;8.650;2023-07-28T07:01:01;99076.06;;;19.57;100.00
43119;BME280;28729;49.838;8.650;2023-07-28T07:05:04;99080.38;;;19.80;100.00
43119;BME280;28729;49.838;8.650;2023-07-28T07:09:07;99074.13;;;19.92;100.00
43119;BME280;28729;49.838;8.650;2023-07-28T07:13:12;99080.88;;;20.09;100.00
43119;BME280;28729;49.838;8.650;2023-07-28T07:17:13;99080.47;;;20.36;100.00
43119;BME280;28729;49.838;8.650;2023-07-28T07:21:15;99091.50;;;20.50;100.00
43119;BME280;28729;49.838;8.650;2023-07-28T07:25:17;99091.13;;;20.52;100.00
43119;BME280;28729;49.838;8.650;2023-07-28T07:29:19;99090.84;;;20.53;100.00
43119;BME280;28729;49.838;8.650;2023-07-28T07:33:20;99096.56;;;20.65;100.00
43119;BME280;28729;49.838;8.650;2023-07-28T07:37:22;99103.94;;;20.79;100.00
43119;BME280;28729;49.838;8.650;2023-07-28T07:41:24;99104.53;;;20.93;100.00
43119;BME280;28729;49.838;8.650;2023-07-28T07:45:26;99108.66;;;21.25;100.00
43119;BME280;28729;49.838;8.650;2023-07-28T07:49:28;99105.63;;;21.69;100.00
43119;BME280;28729;49.838;8.650;2023-07-28T07:53:30;99114.22;;;22.05;100.00
43119;BME280;28729;49.838;8.650;2023-07-28T07:57:32;99113.41;;;22.26;100.00
43119;BME280;28729;49.838;8.650;2023-07-28T08:01:34;99122.38;;;22.40;100.00
43119;BME280;28729;49.838;8.650;2023-07-28T08:05:36;99116.44;;;22.66;100.00
43119;BME280;28729;49.838;8.650;2023-07-28T08:09:39;99117.22;;;22.88;100.00
43119;BME280;28729;49.838;8.650;2023-07-28T08:13:40;99119.06;;;22.71;100.00
43119;BME280;28729;49.838;8.650;2023-07-28T08:17:42;99121.00;;;22.59;100.00
43119;BME280;28729;49.838;8.650;2023-07-28T08:21:44;99123.06;;;22.37;100.00
43119;BME280;28729;49.838;8.650;2023-07-28T08:25:46;99117.22;;;22.42;100.00
43119;BME280;28729;49.838;8.650;2023-07-28T08:29:47;99124.84;;;22.54;100.00
43119;BME280;28729;49.838;8.650;2023-07-28T08:33:50;99121.91;;;22.50;100.00
43119;BME280;28729;49.838;8.650;2023-07-28T08:37:52;99118.47;;;22.33;100.00
43119;BME280;28729;49.838;8.650;2023-07-28T08:42:01;99128.06;;;22.32;100.00
43119;BME280;28729;49.838;8.650;2023-07-28T08:46:03;99129.78;;;22.24;100.00
43119;BME280;28729;49.838;8.650;2023-07-28T08:50:05;99137.50;;;22.27;100.00
43119;BME280;28729;49.838;8.650;2023-07-28T08:54:10;99131.44;;;22.58;100.00
43119;BME280;28729;49.838;8.650;2023-07-28T08:58:20;99149.53;;;22.94;100.00
43119;BME280;28729;49.838;8.650;2023-07-28T09:02:22;99138.00;;;22.74;100.00
43119;BME280;28729;49.838;8.650;2023-07-28T09:06:28;99141.44;;;22.92;100.00
43119;BME280;28729;49.838;8.650;2023-07-28T09:10:47;99143.66;;;22.87;100.00
43119;BME280;28729;49.838;8.650;2023-07-28T09:14:59;99129.09;;;23.06;100.00
43119;BME280;28729;49.838;8.650;2023-07-28T09:19:05;99145.59;;;23.19;100.00
43119;BME280;28729;49.838;8.650;2023-07-28T09:23:09;99149.91;;;23.05;100.00
43119;BME280;28729;49.838;8.650;2023-07-28T09:27:25;99140.13;;;23.23;100.00
43119;BME280;28729;49.838;8.650;2023-07-28T09:31:30;99144.91;;;23.47;100.00
43119;BME280;28729;49.838;8.650;2023-07-28T09:35:47;99141.50;;;23.66;100.00
43119;BME280;28729;49.838;8.650;2023-07-28T09:39:49;99140.31;;;23.55;100.00
43119;BME280;28729;49.838;8.650;2023-07-28T09:43:50;99140.94;;;23.48;100.00
43119;BME280;28729;49.838;8.650;2023-07-28T09:47:56;99141.63;;;23.45;100.00
43119;BME280;28729;49.838;8.650;2023-07-28T09:52:03;99134.38;;;23.44;100.00
43119;BME280;28729;49.838;8.650;2023-07-28T09:56:07;99134.81;;;23.58;100.00
43119;BME280;28729;49.838;8.650;2023-07-28T10:00:12;99142.81;;;23.56;100.00
43119;BME280;28729;49.838;8.650;2023-07-28T10:04:14;99143.03;;;23.39;100.00
43119;BME280;28729;49.838;8.650;2023-07-28T10:08:16;99142.50;;;22.88;100.00
43119;BME280;28729;49.838;8.650;2023-07-28T10:12:23;99147.97;;;22.39;100.00
43119;BME280;28729;49.838;8.650;2023-07-28T10:16:38;99164.81;;;22.84;100.00
43119;BME280;28729;49.838;8.650;2023-07-28T10:20:42;99149.94;;;22.71;100.00
43119;BME280;28729;49.838;8.650;2023-07-28T10:24:55;99161.88;;;22.35;100.00
43119;BME280;28729;49.838;8.650;2023-07-28T10:29:08;99169.72;;;22.42;100.00
43119;BME280;28729;49.838;8.650;2023-07-28T10:33:29;99165.13;;;22.58;100.00
43119;BME280;28729;49.838;8.650;2023-07-28T10:37:31;99174.19;;;22.43;100.00
43119;BME280;28729;49.838;8.650;2023-07-28T10:41:36;99165.69;;;22.30;100.00
43119;BME280;28729;49.838;8.650;2023-07-28T10:45:38;99173.03;;;22.44;100.00
43119;BME280;28729;49.838;8.650;2023-07-28T10:49:41;99162.19;;;22.34;100.00
43119;BME280;28729;49.838;8.650;2023-07-28T10:53:43;99161.19;;;22.71;100.00
43119;BME280;28729;49.838;8.650;2023-07-28T10:57:45;99158.28;;;22.92;100.00
43119;BME280;28729;49.838;8.650;2023-07-28T11:01:47;99164.72;;;22.93;100.00
43119;BME280;28729;49.838;8.650;2023-07-28T11:05:49;99166.59;;;22.77;100.00
43119;BME280;28729;49.838;8.650;2023-07-28T11:09:52;99167.78;;;22.88;100.00
43119;BME280;28729;49.838;8.650;2023-07-28T11:13:54;99170.06;;;23.07;100.00
43119;BME280;28729;49.838;8.650;2023-07-28T11:17:55;99166.13;;;22.87;100.00
43119;BME280;28729;49.838;8.650;2023-07-28T11:21:57;99168.25;;;22.57;100.00
43119;BME280;28729;49.838;8.650;2023-07-28T11:26:00;99173.91;;;22.36;100.00
43119;BME280;28729;49.838;8.650;2023-07-28T11:30:02;99177.59;;;22.27;100.00
43119;BME280;28729;49.838;8.650;2023-07-28T11:34:16;99178.91;;;22.30;100.00
43119;BME280;28729;49.838;8.650;2023-07-28T11:38:19;99177.13;;;22.46;100.00
43119;BME280;28729;49.838;8.650;2023-07-28T11:42:21;99181.69;;;22.51;100.00
43119;BME280;28729;49.838;8.650;2023-07-28T11:50:40;99182.00;;;22.37;100.00
43119;BME280;28729;49.838;8.650;2023-07-28T11:54:43;99187.34;;;22.30;100.00
43119;BME280;28729;49.838;8.650;2023-07-28T11:58:50;99186.59;;;22.21;100.00
43119;BME280;28729;49.838;8.650;2023-07-28T12:03:04;99185.94;;;22.15;100.00
43119;BME280;28729;49.838;8.650;2023-07-28T12:07:16;99188.00;;;22.06;100.00
43119;BME280;28729;49.838;8.650;2023-07-28T12:11:20;99183.94;;;21.95;100.00
43119;BME280;28729;49.838;8.650;2023-07-28T12:15:42;99182.81;;;21.96;100.00
43119;BME280;28729;49.838;8.650;2023-07-28T12:24:12;99188.47;;;22.08;100.00
43119;BME280;28729;49.838;8.650;2023-07-28T12:28:14;99187.28;;;22.18;100.00
43119;BME280;28729;49.838;8.650;2023-07-28T12:32:20;99190.13;;;22.51;100.00
43119;BME280;28729;49.838;8.650;2023-07-28T12:36:35;99191.13;;;22.67;100.00
43119;BME280;28729;49.838;8.650;2023-07-28T12:40:40;99185.34;;;22.85;100.00
43119;BME280;28729;49.838;8.650;2023-07-28T12:44:45;99184.00;;;23.03;100.00
43119;BME280;28729;49.838;8.650;2023-07-28T12:48:50;99176.06;;;23.30;100.00
43119;BME280;28729;49.838;8.650;2023-07-28T12:52:52;99177.13;;;23.62;100.00
43119;BME280;28729;49.838;8.650;2023-07-28T12:56:57;99185.44;;;23.71;100.00
43119;BME280;28729;49.838;8.650;2023-07-28T13:01:02;99186.97;;;23.56;100.00
43119;BME280;28729;49.838;8.650;2023-07-28T13:05:06;99193.03;;;23.21;100.00
43119;BME280;28729;49.838;8.650;2023-07-28T13:09:09;99194.69;;;22.89;100.00
43119;BME280;28729;49.838;8.650;2023-07-28T13:13:14;99202.13;;;22.72;100.00
43119;BME280;28729;49.838;8.650;2023-07-28T13:17:16;99199.06;;;22.65;100.00
43119;BME280;28729;49.838;8.650;2023-07-28T13:21:18;99198.03;;;22.70;100.00
43119;BME280;28729;49.838;8.650;2023-07-28T13:25:21;99204.47;;;22.70;100.00
43119;BME280;28729;49.838;8.650;2023-07-28T13:29:22;99200.59;;;22.96;100.00
43119;BME280;28729;49.838;8.650;2023-07-28T13:33:24;99196.38;;;23.02;100.00
43119;BME280;28729;49.838;8.650;2023-07-28T13:37:29;99202.59;;;23.08;100.00
43119;BME280;28729;49.838;8.650;2023-07-28T13:41:34;99200.19;;;22.85;100.00
43119;BME280;28729;49.838;8.650;2023-07-28T13:45:40;99198.38;;;22.68;100.00
43119;BME280;28729;49.838;8.650;2023-07-28T13:49:43;99204.44;;;22.58;100.00
43119;BME280;28729;49.838;8.650;2023-07-28T13:53:48;99196.00;;;22.58;100.00
43119;BME280;28729;49.838;8.650;2023-07-28T13:57:52;99193.44;;;22.65;100.00
43119;BME280;28729;49.838;8.650;2023-07-28T14:01:54;99200.00;;;22.69;100.00
43119;BME280;28729;49.838;8.650;2023-07-28T14:06:00;99189.00;;;22.64;100.00
43119;BME280;28729;49.838;8.650;2023-07-28T14:10:02;99191.81;;;22.64;100.00
43119;BME280;28729;49.838;8.650;2023-07-28T14:14:08;99186.81;;;22.70;100.00
43119;BME280;28729;49.838;8.650;2023-07-28T14:18:09;99187.50;;;23.00;100.00
43119;BME280;28729;49.838;8.650;2023-07-28T14:22:12;99200.78;;;23.24;100.00
43119;BME280;28729;49.838;8.650;2023-07-28T14:26:14;99193.88;;;23.34;100.00
43119;BME280;28729;49.838;8.650;2023-07-28T14:30:15;99188.84;;;23.39;100.00
43119;BME280;28729;49.838;8.650;2023-07-28T14:34:17;99184.28;;;23.47;100.00
43119;BME280;28729;49.838;8.650;2023-07-28T14:38:19;99186.84;;;23.28;100.00
43119;BME280;28729;49.838;8.650;2023-07-28T14:42:22;99196.16;;;23.07;100.00
43119;BME280;28729;49.838;8.650;2023-07-28T14:46:24;99199.09;;;22.78;100.00
43119;BME280;28729;49.838;8.650;2023-07-28T14:50:27;99196.69;;;22.55;100.00
43119;BME280;28729;49.838;8.650;2023-07-28T14:54:29;99195.00;;;22.42;100.00
43119;BME280;28729;49.838;8.650;2023-07-28T14:58:31;99198.00;;;22.37;100.00
43119;BME280;28729;49.838;8.650;2023-07-28T15:02:33;99200.28;;;22.22;100.00
43119;BME280;28729;49.838;8.650;2023-07-28T15:06:35;99204.81;;;22.06;100.00
43119;BME280;28729;49.838;8.650;2023-07-28T15:10:37;99196.59;;;22.01;100.00
43119;BME280;28729;49.838;8.650;2023-07-28T15:14:38;99204.00;;;22.05;100.00
43119;BME280;28729;49.838;8.650;2023-07-28T15:18:40;99201.44;;;21.92;100.00
43119;BME280;28729;49.838;8.650;2023-07-28T15:22:46;99205.53;;;21.73;100.00
43119;BME280;28729;49.838;8.650;2023-07-28T15:26:51;99203.59;;;21.65;100.00
43119;BME280;28729;49.838;8.650;2023-07-28T15:30:53;99211.72;;;21.58;100.00
43119;BME280;28729;49.838;8.650;2023-07-28T15:34:57;99212.00;;;21.65;100.00
43119;BME280;28729;49.838;8.650;2023-07-28T15:38:59;99199.56;;;21.54;100.00
43119;BME280;28729;49.838;8.650;2023-07-28T15:43:01;99210.84;;;21.36;100.00
43119;BME280;28729;49.838;8.650;2023-07-28T15:47:04;99216.78;;;21.26;100.00
43119;BME280;28729;49.838;8.650;2023-07-28T15:51:05;99216.59;;;21.31;100.00
43119;BME280;28729;49.838;8.650;2023-07-28T15:55:07;99208.00;;;21.45;100.00
43119;BME280;28729;49.838;8.650;2023-07-28T15:59:09;99205.16;;;21.54;100.00
43119;BME280;28729;49.838;8.650;2023-07-28T16:03:30;99208.09;;;21.57;100.00
43119;BME280;28729;49.838;8.650;2023-07-28T16:07:34;99204.28;;;21.62;100.00
43119;BME280;28729;49.838;8.650;2023-07-28T16:11:36;99203.50;;;21.53;100.00
43119;BME280;28729;49.838;8.650;2023-07-28T16:15:38;99199.84;;;21.61;100.00
43119;BME280;28729;49.838;8.650;2023-07-28T16:19:40;99198.47;;;21.67;100.00
43119;BME280;28729;49.838;8.650;2023-07-28T16:23:43;99203.03;;;21.80;100.00
43119;BME280;28729;49.838;8.650;2023-07-28T16:27:48;99200.81;;;21.86;100.00
43119;BME280;28729;49.838;8.650;2023-07-28T16:31:56;99209.25;;;21.86;100.00
43119;BME280;28729;49.838;8.650;2023-07-28T16:35:59;99199.56;;;21.83;100.00
43119;BME280;28729;49.838;8.650;2023-07-28T16:40:01;99201.78;;;21.69;100.00
43119;BME280;28729;49.838;8.650;2023-07-28T16:44:04;99196.53;;;21.59;100.00
43119;BME280;28729;49.838;8.650;2023-07-28T16:48:06;99189.97;;;21.55;100.00
43119;BME280;28729;49.838;8.650;2023-07-28T16:52:08;99193.59;;;21.55;100.00
43119;BME280;28729;49.838;8.650;2023-07-28T16:56:09;99191.59;;;21.56;100.00
43119;BME280;28729;49.838;8.650;2023-07-28T17:00:12;99189.78;;;21.60;100.00
43119;BME280;28729;49.838;8.650;2023-07-28T17:04:13;99187.84;;;21.52;100.00
43119;BME280;28729;49.838;8.650;2023-07-28T17:08:15;99197.22;;;21.56;100.00
43119;BME280;28729;49.838;8.650;2023-07-28T17:12:17;99196.91;;;21.57;100.00
43119;BME280;28729;49.838;8.650;2023-07-28T17:16:20;99193.31;;;21.48;100.00
43119;BME280;28729;49.838;8.650;2023-07-28T17:20:23;99202.91;;;21.38;100.00
43119;BME280;28729;49.838;8.650;2023-07-28T17:24:25;99201.41;;;21.32;100.00
43119;BME280;28729;49.838;8.650;2023-07-28T17:28:27;99208.72;;;21.25;100.00
43119;BME280;28729;49.838;8.650;2023-07-28T17:32:29;99204.75;;;21.26;100.00
43119;BME280;28729;49.838;8.650;2023-07-28T17:36:31;99204.75;;;21.26;100.00
43119;BME280;28729;49.838;8.650;2023-07-28T17:40:32;99198.88;;;21.10;100.00
43119;BME280;28729;49.838;8.650;2023-07-28T17:44:34;99199.25;;;20.91;100.00
43119;BME280;28729;49.838;8.650;2023-07-28T17:48:36;99195.66;;;20.73;100.00
43119;BME280;28729;49.838;8.650;2023-07-28T17:52:38;99200.81;;;20.71;100.00
43119;BME280;28729;49.838;8.650;2023-07-28T17:56:39;99205.91;;;20.60;100.00
43119;BME280;28729;49.838;8.650;2023-07-28T18:00:41;99196.66;;;20.51;100.00
43119;BME280;28729;49.838;8.650;2023-07-28T18:04:43;99202.28;;;20.42;100.00
43119;BME280;28729;49.838;8.650;2023-07-28T18:08:45;99213.97;;;20.44;100.00
43119;BME280;28729;49.838;8.650;2023-07-28T18:12:47;99218.56;;;20.40;100.00
43119;BME280;28729;49.838;8.650;2023-07-28T18:16:49;99214.47;;;20.29;100.00
43119;BME280;28729;49.838;8.650;2023-07-28T18:20:51;99211.31;;;20.22;100.00
43119;BME280;28729;49.838;8.650;2023-07-28T18:24:52;99213.97;;;20.10;100.00
43119;BME280;28729;49.838;8.650;2023-07-28T18:28:54;99209.03;;;20.07;100.00
43119;BME280;28729;49.838;8.650;2023-07-28T18:32:56;99211.97;;;20.01;100.00
43119;BME280;28729;49.838;8.650;2023-07-28T18:36:58;99227.94;;;20.01;100.00
43119;BME280;28729;49.838;8.650;2023-07-28T18:41:00;99223.81;;;19.98;100.00
43119;BME280;28729;49.838;8.650;2023-07-28T18:45:02;99227.25;;;19.95;100.00
43119;BME280;28729;49.838;8.650;2023-07-28T18:49:04;99222.97;;;19.89;100.00
43119;BME280;28729;49.838;8.650;2023-07-28T18:53:06;99218.22;;;19.81;100.00
43119;BME280;28729;49.838;8.650;2023-07-28T18:57:08;99225.59;;;19.77;100.00
43119;BME280;28729;49.838;8.650;2023-07-28T19:01:11;99228.03;;;19.70;100.00
43119;BME280;28729;49.838;8.650;2023-07-28T19:05:13;99242.66;;;19.67;100.00
43119;BME280;28729;49.838;8.650;2023-07-28T19:09:15;99238.66;;;19.59;100.00
43119;BME280;28729;49.838;8.650;2023-07-28T19:13:16;99250.81;;;19.54;100.00
43119;BME280;28729;49.838;8.650;2023-07-28T19:17:18;99251.47;;;19.51;100.00
43119;BME280;28729;49.838;8.650;2023-07-28T19:21:21;99252.72;;;19.45;100.00
43119;BME280;28729;49.838;8.650;2023-07-28T19:25:23;99237.75;;;19.41;100.00
43119;BME280;28729;49.838;8.650;2023-07-28T19:29:25;99258.09;;;19.33;100.00
43119;BME280;28729;49.838;8.650;2023-07-28T19:33:27;99252.16;;;19.26;100.00
43119;BME280;28729;49.838;8.650;2023-07-28T19:37:29;99265.13;;;19.22;100.00
43119;BME280;28729;49.838;8.650;2023-07-28T19:41:45;99270.34;;;19.15;100.00
43119;BME280;28729;49.838;8.650;2023-07-28T19:45:47;99270.28;;;19.06;100.00
43119;BME280;28729;49.838;8.650;2023-07-28T19:49:49;99277.16;;;19.00;100.00
43119;BME280;28729;49.838;8.650;2023-07-28T19:54:11;99287.50;;;18.99;100.00
43119;BME280;28729;49.838;8.650;2023-07-28T19:58:13;99286.34;;;19.00;100.00
43119;BME280;28729;49.838;8.650;2023-07-28T20:02:15;99296.38;;;19.01;100.00
43119;BME280;28729;49.838;8.650;2023-07-28T20:06:17;99290.81;;;19.01;100.00
43119;BME280;28729;49.838;8.650;2023-07-28T20:10:19;99282.53;;;18.96;100.00
43119;BME280;28729;49.838;8.650;2023-07-28T20:14:21;99271.19;;;18.93;100.00
43119;BME280;28729;49.838;8.650;2023-07-28T20:18:23;99274.44;;;18.86;100.00
43119;BME280;28729;49.838;8.650;2023-07-28T20:22:25;99275.19;;;18.78;100.00
43119;BME280;28729;49.838;8.650;2023-07-28T20:26:27;99275.50;;;18.76;100.00
43119;BME280;28729;49.838;8.650;2023-07-28T20:30:28;99270.75;;;18.77;100.00
43119;BME280;28729;49.838;8.650;2023-07-28T20:34:30;99264.13;;;18.73;100.00
43119;BME280;28729;49.838;8.650;2023-07-28T20:38:32;99267.88;;;18.68;100.00
43119;BME280;28729;49.838;8.650;2023-07-28T20:42:34;99268.81;;;18.63;100.00
43119;BME280;28729;49.838;8.650;2023-07-28T20:46:36;99262.41;;;18.63;100.00
43119;BME280;28729;49.838;8.650;2023-07-28T20:50:38;99258.28;;;18.60;100.00
43119;BME280;28729;49.838;8.650;2023-07-28T20:54:40;99263.88;;;18.60;100.00
43119;BME280;28729;49.838;8.650;2023-07-28T20:58:42;99269.13;;;18.62;100.00
43119;BME280;28729;49.838;8.650;2023-07-28T21:02:44;99260.25;;;18.60;100.00
43119;BME280;28729;49.838;8.650;2023-07-28T21:06:46;99261.09;;;18.60;100.00
43119;BME280;28729;49.838;8.650;2023-07-28T21:10:48;99265.03;;;18.59;100.00
43119;BME280;28729;49.838;8.650;2023-07-28T21:14:51;99270.91;;;18.58;100.00
43119;BME280;28729;49.838;8.650;2023-07-28T21:18:55;99266.13;;;18.58;100.00
43119;BME280;28729;49.838;8.650;2023-07-28T21:22:56;99268.94;;;18.58;100.00
43119;BME280;28729;49.838;8.650;2023-07-28T21:26:59;99252.19;;;18.58;100.00
43119;BME280;28729;49.838;8.650;2023-07-28T21:31:01;99267.28;;;18.57;100.00